Terminal Aerodrome Forecast
Issued by NWS

Home | Current Version | Previous Version | Text Only | Print | Product List | Glossary On
Versions: 1 2 3 4 5 6 7 8 9 10 11 12 13 14
000
FTUS42 KMLB 061725
TAFSUA
TAF
KSUA 061725Z 0618/0718 04008KT P6SM SCT015 BKN025
     FM070100 01007KT P6SM OVC008
     FM070700 01010KT P6SM OVC004
     FM071400 03012G18KT P6SM BKN010 OVC015=

USA.gov is the U.S. government's official web portal to all federal, state and local government web resources and services.